sensor_id;sensor_type;location;lat;lon;timestamp;P1;durP1;ratioP1;P2;durP2;ratioP2
48765;SDS011;65794;51.836;5.002;2023-02-17T00:00:08;23.65;;;13.02;;
48765;SDS011;65794;51.836;5.002;2023-02-17T00:02:36;24.25;;;12.50;;
48765;SDS011;65794;51.836;5.002;2023-02-17T00:05:04;24.30;;;10.38;;
48765;SDS011;65794;51.836;5.002;2023-02-17T00:07:31;21.13;;;10.45;;
48765;SDS011;65794;51.836;5.002;2023-02-17T00:09:58;19.83;;;10.20;;
48765;SDS011;65794;51.836;5.002;2023-02-17T00:12:25;21.63;;;10.82;;
48765;SDS011;65794;51.836;5.002;2023-02-17T00:14:52;20.05;;;10.40;;
48765;SDS011;65794;51.836;5.002;2023-02-17T00:17:19;22.67;;;10.48;;
48765;SDS011;65794;51.836;5.002;2023-02-17T00:19:46;21.10;;;11.18;;
48765;SDS011;65794;51.836;5.002;2023-02-17T00:22:13;20.90;;;11.63;;
48765;SDS011;65794;51.836;5.002;2023-02-17T00:24:40;28.38;;;13.02;;
48765;SDS011;65794;51.836;5.002;2023-02-17T00:27:08;23.00;;;12.25;;
48765;SDS011;65794;51.836;5.002;2023-02-17T00:29:35;24.20;;;13.00;;
48765;SDS011;65794;51.836;5.002;2023-02-17T00:32:02;27.48;;;13.85;;
48765;SDS011;65794;51.836;5.002;2023-02-17T00:34:29;25.13;;;13.65;;
48765;SDS011;65794;51.836;5.002;2023-02-17T00:36:55;24.92;;;12.50;;
48765;SDS011;65794;51.836;5.002;2023-02-17T00:39:24;26.13;;;13.48;;
48765;SDS011;65794;51.836;5.002;2023-02-17T00:41:51;30.52;;;14.50;;
48765;SDS011;65794;51.836;5.002;2023-02-17T00:44:20;35.25;;;15.45;;
48765;SDS011;65794;51.836;5.002;2023-02-17T00:46:50;30.80;;;15.30;;
48765;SDS011;65794;51.836;5.002;2023-02-17T00:49:20;33.45;;;16.77;;
48765;SDS011;65794;51.836;5.002;2023-02-17T00:51:47;33.75;;;16.30;;
48765;SDS011;65794;51.836;5.002;2023-02-17T00:54:14;32.90;;;16.48;;
48765;SDS011;65794;51.836;5.002;2023-02-17T00:56:42;36.00;;;17.45;;
48765;SDS011;65794;51.836;5.002;2023-02-17T00:59:09;30.77;;;15.25;;
48765;SDS011;65794;51.836;5.002;2023-02-17T01:01:36;36.97;;;16.25;;
48765;SDS011;65794;51.836;5.002;2023-02-17T01:04:04;38.17;;;17.63;;
48765;SDS011;65794;51.836;5.002;2023-02-17T01:06:32;34.75;;;17.67;;
48765;SDS011;65794;51.836;5.002;2023-02-17T01:09:00;38.42;;;19.02;;
48765;SDS011;65794;51.836;5.002;2023-02-17T01:11:29;36.63;;;18.13;;
48765;SDS011;65794;51.836;5.002;2023-02-17T01:13:57;32.47;;;16.02;;
48765;SDS011;65794;51.836;5.002;2023-02-17T01:16:26;31.10;;;16.05;;
48765;SDS011;65794;51.836;5.002;2023-02-17T01:18:57;32.63;;;15.95;;
48765;SDS011;65794;51.836;5.002;2023-02-17T01:21:25;34.30;;;16.58;;
48765;SDS011;65794;51.836;5.002;2023-02-17T01:23:53;29.00;;;14.98;;
48765;SDS011;65794;51.836;5.002;2023-02-17T01:26:21;28.27;;;14.27;;
48765;SDS011;65794;51.836;5.002;2023-02-17T01:28:48;36.03;;;16.05;;
48765;SDS011;65794;51.836;5.002;2023-02-17T01:31:18;33.83;;;15.23;;
48765;SDS011;65794;51.836;5.002;2023-02-17T01:33:45;34.13;;;15.30;;
48765;SDS011;65794;51.836;5.002;2023-02-17T01:36:13;38.72;;;16.10;;
48765;SDS011;65794;51.836;5.002;2023-02-17T01:38:40;30.80;;;15.27;;
48765;SDS011;65794;51.836;5.002;2023-02-17T01:41:09;41.63;;;16.60;;
48765;SDS011;65794;51.836;5.002;2023-02-17T01:43:36;35.95;;;17.33;;
48765;SDS011;65794;51.836;5.002;2023-02-17T01:46:04;42.25;;;17.58;;
48765;SDS011;65794;51.836;5.002;2023-02-17T01:51:21;38.42;;;16.90;;
48765;SDS011;65794;51.836;5.002;2023-02-17T01:53:52;43.28;;;15.85;;
48765;SDS011;65794;51.836;5.002;2023-02-17T01:56:20;32.00;;;15.18;;
48765;SDS011;65794;51.836;5.002;2023-02-17T01:58:49;35.67;;;15.70;;
48765;SDS011;65794;51.836;5.002;2023-02-17T02:01:18;31.67;;;14.65;;
48765;SDS011;65794;51.836;5.002;2023-02-17T02:03:45;38.15;;;15.90;;
48765;SDS011;65794;51.836;5.002;2023-02-17T02:06:15;27.85;;;13.15;;
48765;SDS011;65794;51.836;5.002;2023-02-17T02:08:49;31.02;;;13.32;;
48765;SDS011;65794;51.836;5.002;2023-02-17T02:11:19;33.22;;;13.85;;
48765;SDS011;65794;51.836;5.002;2023-02-17T02:13:47;31.40;;;14.18;;
48765;SDS011;65794;51.836;5.002;2023-02-17T02:16:22;28.60;;;13.13;;
48765;SDS011;65794;51.836;5.002;2023-02-17T02:18:59;31.48;;;14.32;;
48765;SDS011;65794;51.836;5.002;2023-02-17T02:21:35;25.73;;;13.13;;
48765;SDS011;65794;51.836;5.002;2023-02-17T02:24:17;31.80;;;14.00;;
48765;SDS011;65794;51.836;5.002;2023-02-17T02:26:52;29.98;;;13.85;;
48765;SDS011;65794;51.836;5.002;2023-02-17T02:34:45;33.13;;;14.32;;
48765;SDS011;65794;51.836;5.002;2023-02-17T02:37:16;29.85;;;12.45;;
48765;SDS011;65794;51.836;5.002;2023-02-17T02:39:45;31.80;;;14.20;;
48765;SDS011;65794;51.836;5.002;2023-02-17T02:42:16;31.60;;;13.95;;
48765;SDS011;65794;51.836;5.002;2023-02-17T02:44:44;27.88;;;12.15;;
48765;SDS011;65794;51.836;5.002;2023-02-17T02:49:57;30.10;;;14.63;;
48765;SDS011;65794;51.836;5.002;2023-02-17T02:52:32;33.20;;;15.10;;
48765;SDS011;65794;51.836;5.002;2023-02-17T02:55:03;33.28;;;15.48;;
48765;SDS011;65794;51.836;5.002;2023-02-17T03:02:50;31.33;;;13.57;;
48765;SDS011;65794;51.836;5.002;2023-02-17T03:05:24;28.75;;;12.55;;
48765;SDS011;65794;51.836;5.002;2023-02-17T03:10:22;23.90;;;11.48;;
48765;SDS011;65794;51.836;5.002;2023-02-17T03:12:50;25.50;;;11.98;;
48765;SDS011;65794;51.836;5.002;2023-02-17T03:17:46;23.02;;;11.35;;
48765;SDS011;65794;51.836;5.002;2023-02-17T03:20:14;25.60;;;12.32;;
48765;SDS011;65794;51.836;5.002;2023-02-17T03:22:42;28.23;;;12.15;;
48765;SDS011;65794;51.836;5.002;2023-02-17T03:25:10;26.45;;;12.00;;
48765;SDS011;65794;51.836;5.002;2023-02-17T03:27:37;28.48;;;12.27;;
48765;SDS011;65794;51.836;5.002;2023-02-17T03:30:05;24.33;;;11.50;;
48765;SDS011;65794;51.836;5.002;2023-02-17T03:32:32;28.27;;;12.70;;
48765;SDS011;65794;51.836;5.002;2023-02-17T03:34:59;22.85;;;11.35;;
48765;SDS011;65794;51.836;5.002;2023-02-17T03:37:25;29.60;;;11.98;;
48765;SDS011;65794;51.836;5.002;2023-02-17T03:39:52;28.23;;;12.10;;
48765;SDS011;65794;51.836;5.002;2023-02-17T03:42:19;23.50;;;9.98;;
48765;SDS011;65794;51.836;5.002;2023-02-17T03:44:46;26.10;;;11.35;;
48765;SDS011;65794;51.836;5.002;2023-02-17T03:47:13;30.38;;;12.35;;
48765;SDS011;65794;51.836;5.002;2023-02-17T03:49:41;26.65;;;11.52;;
48765;SDS011;65794;51.836;5.002;2023-02-17T03:52:08;25.95;;;11.45;;
48765;SDS011;65794;51.836;5.002;2023-02-17T03:54:35;23.10;;;10.27;;
48765;SDS011;65794;51.836;5.002;2023-02-17T03:57:02;23.70;;;10.65;;
48765;SDS011;65794;51.836;5.002;2023-02-17T03:59:29;25.85;;;10.98;;
48765;SDS011;65794;51.836;5.002;2023-02-17T04:01:56;21.90;;;10.85;;
48765;SDS011;65794;51.836;5.002;2023-02-17T04:04:23;19.50;;;10.95;;
48765;SDS011;65794;51.836;5.002;2023-02-17T04:06:50;27.63;;;11.52;;
48765;SDS011;65794;51.836;5.002;2023-02-17T04:09:17;22.00;;;10.32;;
48765;SDS011;65794;51.836;5.002;2023-02-17T04:11:44;27.20;;;10.55;;
48765;SDS011;65794;51.836;5.002;2023-02-17T04:14:11;26.27;;;10.40;;
48765;SDS011;65794;51.836;5.002;2023-02-17T04:16:38;25.48;;;11.63;;
48765;SDS011;65794;51.836;5.002;2023-02-17T04:19:05;25.30;;;10.45;;
48765;SDS011;65794;51.836;5.002;2023-02-17T04:21:32;25.33;;;11.18;;
48765;SDS011;65794;51.836;5.002;2023-02-17T04:23:59;25.70;;;10.48;;
48765;SDS011;65794;51.836;5.002;2023-02-17T04:26:27;25.60;;;10.30;;
48765;SDS011;65794;51.836;5.002;2023-02-17T04:28:53;27.00;;;11.68;;
48765;SDS011;65794;51.836;5.002;2023-02-17T04:31:20;31.15;;;12.68;;
48765;SDS011;65794;51.836;5.002;2023-02-17T04:33:47;31.73;;;11.68;;
48765;SDS011;65794;51.836;5.002;2023-02-17T04:36:14;25.08;;;10.77;;
48765;SDS011;65794;51.836;5.002;2023-02-17T04:38:41;27.20;;;12.38;;
48765;SDS011;65794;51.836;5.002;2023-02-17T04:41:08;36.95;;;13.38;;
48765;SDS011;65794;51.836;5.002;2023-02-17T04:43:35;32.53;;;13.23;;
48765;SDS011;65794;51.836;5.002;2023-02-17T04:46:02;26.52;;;11.20;;
48765;SDS011;65794;51.836;5.002;2023-02-17T04:48:29;28.38;;;11.88;;
48765;SDS011;65794;51.836;5.002;2023-02-17T04:50:56;31.70;;;13.70;;
48765;SDS011;65794;51.836;5.002;2023-02-17T04:53:22;33.83;;;13.88;;
48765;SDS011;65794;51.836;5.002;2023-02-17T04:55:51;33.10;;;14.52;;
48765;SDS011;65794;51.836;5.002;2023-02-17T04:58:18;33.33;;;12.73;;
48765;SDS011;65794;51.836;5.002;2023-02-17T05:00:46;34.80;;;12.50;;
48765;SDS011;65794;51.836;5.002;2023-02-17T05:03:13;31.67;;;13.40;;
48765;SDS011;65794;51.836;5.002;2023-02-17T05:05:40;34.78;;;13.93;;
48765;SDS011;65794;51.836;5.002;2023-02-17T05:08:07;32.85;;;12.02;;
48765;SDS011;65794;51.836;5.002;2023-02-17T05:10:34;34.42;;;13.15;;
48765;SDS011;65794;51.836;5.002;2023-02-17T05:13:00;31.40;;;11.93;;
48765;SDS011;65794;51.836;5.002;2023-02-17T05:15:27;28.58;;;11.88;;
48765;SDS011;65794;51.836;5.002;2023-02-17T05:17:54;22.80;;;9.88;;
48765;SDS011;65794;51.836;5.002;2023-02-17T05:20:21;24.90;;;9.30;;
48765;SDS011;65794;51.836;5.002;2023-02-17T05:22:48;23.10;;;8.88;;
48765;SDS011;65794;51.836;5.002;2023-02-17T05:25:14;26.38;;;10.65;;
48765;SDS011;65794;51.836;5.002;2023-02-17T05:27:41;23.25;;;10.65;;
48765;SDS011;65794;51.836;5.002;2023-02-17T05:30:08;30.85;;;11.07;;
48765;SDS011;65794;51.836;5.002;2023-02-17T05:32:35;26.65;;;10.75;;
48765;SDS011;65794;51.836;5.002;2023-02-17T05:35:02;32.30;;;12.05;;
48765;SDS011;65794;51.836;5.002;2023-02-17T05:37:29;26.42;;;11.32;;
48765;SDS011;65794;51.836;5.002;2023-02-17T05:39:56;29.70;;;11.18;;
48765;SDS011;65794;51.836;5.002;2023-02-17T05:42:23;27.60;;;10.35;;
48765;SDS011;65794;51.836;5.002;2023-02-17T05:44:54;27.52;;;11.65;;
48765;SDS011;65794;51.836;5.002;2023-02-17T05:47:21;33.03;;;11.77;;
48765;SDS011;65794;51.836;5.002;2023-02-17T05:49:48;21.88;;;9.02;;
48765;SDS011;65794;51.836;5.002;2023-02-17T05:52:15;26.23;;;10.68;;
48765;SDS011;65794;51.836;5.002;2023-02-17T05:54:44;24.58;;;10.77;;
48765;SDS011;65794;51.836;5.002;2023-02-17T05:57:10;37.55;;;11.52;;
48765;SDS011;65794;51.836;5.002;2023-02-17T05:59:37;25.23;;;11.77;;
48765;SDS011;65794;51.836;5.002;2023-02-17T06:02:07;23.30;;;10.02;;
48765;SDS011;65794;51.836;5.002;2023-02-17T06:04:34;22.40;;;10.20;;
48765;SDS011;65794;51.836;5.002;2023-02-17T06:07:01;22.05;;;8.98;;
48765;SDS011;65794;51.836;5.002;2023-02-17T06:09:27;29.85;;;11.05;;
48765;SDS011;65794;51.836;5.002;2023-02-17T06:11:54;26.55;;;10.45;;
48765;SDS011;65794;51.836;5.002;2023-02-17T06:14:21;26.17;;;10.65;;
48765;SDS011;65794;51.836;5.002;2023-02-17T06:16:48;20.98;;;9.55;;
48765;SDS011;65794;51.836;5.002;2023-02-17T06:19:15;20.85;;;8.93;;
48765;SDS011;65794;51.836;5.002;2023-02-17T06:21:41;23.95;;;9.73;;
48765;SDS011;65794;51.836;5.002;2023-02-17T06:24:08;21.60;;;9.02;;
48765;SDS011;65794;51.836;5.002;2023-02-17T06:26:35;23.25;;;8.95;;
48765;SDS011;65794;51.836;5.002;2023-02-17T06:29:02;19.67;;;8.52;;
48765;SDS011;65794;51.836;5.002;2023-02-17T06:31:29;23.33;;;9.10;;
48765;SDS011;65794;51.836;5.002;2023-02-17T06:33:55;22.27;;;9.27;;
48765;SDS011;65794;51.836;5.002;2023-02-17T06:36:22;22.92;;;9.25;;
48765;SDS011;65794;51.836;5.002;2023-02-17T06:38:49;23.63;;;8.80;;
48765;SDS011;65794;51.836;5.002;2023-02-17T06:41:16;26.05;;;9.50;;
48765;SDS011;65794;51.836;5.002;2023-02-17T06:43:43;25.48;;;10.32;;
48765;SDS011;65794;51.836;5.002;2023-02-17T06:46:10;23.15;;;9.13;;
48765;SDS011;65794;51.836;5.002;2023-02-17T06:48:37;22.98;;;9.27;;
48765;SDS011;65794;51.836;5.002;2023-02-17T06:51:05;24.23;;;8.13;;
48765;SDS011;65794;51.836;5.002;2023-02-17T06:53:32;23.83;;;9.90;;
48765;SDS011;65794;51.836;5.002;2023-02-17T06:55:59;23.17;;;9.85;;
48765;SDS011;65794;51.836;5.002;2023-02-17T06:58:25;23.70;;;9.57;;
48765;SDS011;65794;51.836;5.002;2023-02-17T07:00:52;19.58;;;9.02;;
48765;SDS011;65794;51.836;5.002;2023-02-17T07:03:19;24.52;;;9.50;;
48765;SDS011;65794;51.836;5.002;2023-02-17T07:05:46;21.17;;;8.93;;
48765;SDS011;65794;51.836;5.002;2023-02-17T07:08:13;24.33;;;9.75;;
48765;SDS011;65794;51.836;5.002;2023-02-17T07:10:40;23.15;;;8.90;;
48765;SDS011;65794;51.836;5.002;2023-02-17T07:13:07;16.20;;;7.05;;
48765;SDS011;65794;51.836;5.002;2023-02-17T07:15:34;20.88;;;7.43;;
48765;SDS011;65794;51.836;5.002;2023-02-17T07:18:01;18.13;;;7.10;;
48765;SDS011;65794;51.836;5.002;2023-02-17T07:20:28;19.13;;;8.52;;
48765;SDS011;65794;51.836;5.002;2023-02-17T07:23:00;20.05;;;8.10;;
48765;SDS011;65794;51.836;5.002;2023-02-17T07:25:27;16.17;;;7.78;;
48765;SDS011;65794;51.836;5.002;2023-02-17T07:27:54;19.30;;;8.00;;
48765;SDS011;65794;51.836;5.002;2023-02-17T07:30:20;21.17;;;9.30;;
48765;SDS011;65794;51.836;5.002;2023-02-17T07:32:47;16.55;;;8.07;;
48765;SDS011;65794;51.836;5.002;2023-02-17T07:35:14;17.08;;;7.68;;
48765;SDS011;65794;51.836;5.002;2023-02-17T07:37:41;20.38;;;8.38;;
48765;SDS011;65794;51.836;5.002;2023-02-17T07:40:08;17.45;;;9.02;;
48765;SDS011;65794;51.836;5.002;2023-02-17T07:42:35;17.13;;;8.65;;
48765;SDS011;65794;51.836;5.002;2023-02-17T07:45:02;18.65;;;8.55;;
48765;SDS011;65794;51.836;5.002;2023-02-17T07:47:30;16.48;;;8.15;;
48765;SDS011;65794;51.836;5.002;2023-02-17T07:49:57;15.50;;;7.05;;
48765;SDS011;65794;51.836;5.002;2023-02-17T07:52:24;17.95;;;8.55;;
48765;SDS011;65794;51.836;5.002;2023-02-17T07:54:51;14.05;;;5.82;;
48765;SDS011;65794;51.836;5.002;2023-02-17T07:57:18;13.98;;;7.07;;
48765;SDS011;65794;51.836;5.002;2023-02-17T07:59:45;14.55;;;8.27;;
48765;SDS011;65794;51.836;5.002;2023-02-17T08:02:12;14.73;;;8.10;;
48765;SDS011;65794;51.836;5.002;2023-02-17T08:04:40;15.07;;;6.47;;
48765;SDS011;65794;51.836;5.002;2023-02-17T08:07:06;14.45;;;7.85;;
48765;SDS011;65794;51.836;5.002;2023-02-17T08:09:33;15.52;;;7.32;;
48765;SDS011;65794;51.836;5.002;2023-02-17T08:12:19;14.07;;;7.18;;
48765;SDS011;65794;51.836;5.002;2023-02-17T08:15:05;15.40;;;7.35;;
48765;SDS011;65794;51.836;5.002;2023-02-17T08:17:33;14.63;;;6.80;;
48765;SDS011;65794;51.836;5.002;2023-02-17T08:20:00;11.23;;;6.13;;
48765;SDS011;65794;51.836;5.002;2023-02-17T08:22:34;14.57;;;6.45;;
48765;SDS011;65794;51.836;5.002;2023-02-17T08:25:01;12.95;;;6.68;;
48765;SDS011;65794;51.836;5.002;2023-02-17T08:27:28;13.93;;;6.65;;
48765;SDS011;65794;51.836;5.002;2023-02-17T08:29:54;11.57;;;5.75;;
48765;SDS011;65794;51.836;5.002;2023-02-17T08:32:22;15.25;;;6.43;;
48765;SDS011;65794;51.836;5.002;2023-02-17T08:34:49;13.75;;;6.43;;
48765;SDS011;65794;51.836;5.002;2023-02-17T08:37:15;10.13;;;5.47;;
48765;SDS011;65794;51.836;5.002;2023-02-17T08:39:42;12.00;;;5.18;;
48765;SDS011;65794;51.836;5.002;2023-02-17T08:42:09;16.45;;;6.75;;
48765;SDS011;65794;51.836;5.002;2023-02-17T08:44:37;12.57;;;5.95;;
48765;SDS011;65794;51.836;5.002;2023-02-17T08:47:04;9.75;;;4.60;;
48765;SDS011;65794;51.836;5.002;2023-02-17T08:49:32;8.63;;;4.45;;
48765;SDS011;65794;51.836;5.002;2023-02-17T08:51:59;15.07;;;6.00;;
48765;SDS011;65794;51.836;5.002;2023-02-17T08:54:26;14.30;;;6.10;;
48765;SDS011;65794;51.836;5.002;2023-02-17T08:56:53;13.27;;;6.00;;
48765;SDS011;65794;51.836;5.002;2023-02-17T08:59:20;11.80;;;5.40;;
48765;SDS011;65794;51.836;5.002;2023-02-17T09:01:46;9.65;;;5.15;;
48765;SDS011;65794;51.836;5.002;2023-02-17T09:04:14;10.75;;;5.78;;
48765;SDS011;65794;51.836;5.002;2023-02-17T09:06:43;10.13;;;5.07;;
48765;SDS011;65794;51.836;5.002;2023-02-17T09:09:10;10.85;;;5.28;;
48765;SDS011;65794;51.836;5.002;2023-02-17T09:11:38;13.13;;;5.80;;
48765;SDS011;65794;51.836;5.002;2023-02-17T09:14:07;8.90;;;4.35;;
48765;SDS011;65794;51.836;5.002;2023-02-17T09:16:35;10.38;;;4.97;;
48765;SDS011;65794;51.836;5.002;2023-02-17T09:19:02;10.35;;;4.47;;
48765;SDS011;65794;51.836;5.002;2023-02-17T09:21:29;11.13;;;4.90;;
48765;SDS011;65794;51.836;5.002;2023-02-17T09:23:56;10.18;;;4.47;;
48765;SDS011;65794;51.836;5.002;2023-02-17T09:26:23;14.38;;;5.47;;
48765;SDS011;65794;51.836;5.002;2023-02-17T09:28:50;8.35;;;4.03;;
48765;SDS011;65794;51.836;5.002;2023-02-17T09:31:21;9.20;;;4.68;;
48765;SDS011;65794;51.836;5.002;2023-02-17T09:33:48;11.13;;;5.25;;
48765;SDS011;65794;51.836;5.002;2023-02-17T09:36:17;11.48;;;5.53;;
48765;SDS011;65794;51.836;5.002;2023-02-17T09:38:45;11.50;;;5.25;;
48765;SDS011;65794;51.836;5.002;2023-02-17T09:41:16;13.02;;;5.60;;
48765;SDS011;65794;51.836;5.002;2023-02-17T09:43:44;9.55;;;5.68;;
48765;SDS011;65794;51.836;5.002;2023-02-17T09:46:14;10.20;;;5.20;;
48765;SDS011;65794;51.836;5.002;2023-02-17T09:48:42;12.73;;;5.65;;
48765;SDS011;65794;51.836;5.002;2023-02-17T09:51:14;12.05;;;5.88;;
48765;SDS011;65794;51.836;5.002;2023-02-17T09:53:49;8.93;;;3.97;;
48765;SDS011;65794;51.836;5.002;2023-02-17T09:56:19;13.18;;;5.60;;
48765;SDS011;65794;51.836;5.002;2023-02-17T09:58:54;11.45;;;5.32;;
48765;SDS011;65794;51.836;5.002;2023-02-17T10:01:25;10.65;;;5.40;;
48765;SDS011;65794;51.836;5.002;2023-02-17T10:06:37;15.13;;;5.00;;
48765;SDS011;65794;51.836;5.002;2023-02-17T10:14:28;8.63;;;4.38;;
48765;SDS011;65794;51.836;5.002;2023-02-17T10:16:59;10.88;;;4.65;;
48765;SDS011;65794;51.836;5.002;2023-02-17T10:19:29;11.48;;;4.70;;
48765;SDS011;65794;51.836;5.002;2023-02-17T10:22:04;10.35;;;5.40;;
48765;SDS011;65794;51.836;5.002;2023-02-17T10:24:32;11.75;;;5.32;;
48765;SDS011;65794;51.836;5.002;2023-02-17T10:27:03;9.93;;;4.82;;
48765;SDS011;65794;51.836;5.002;2023-02-17T10:32:09;9.05;;;4.97;;
48765;SDS011;65794;51.836;5.002;2023-02-17T10:34:50;10.98;;;5.18;;
48765;SDS011;65794;51.836;5.002;2023-02-17T10:37:33;10.15;;;4.40;;
48765;SDS011;65794;51.836;5.002;2023-02-17T10:40:09;11.80;;;5.82;;
48765;SDS011;65794;51.836;5.002;2023-02-17T10:42:37;10.45;;;4.95;;
48765;SDS011;65794;51.836;5.002;2023-02-17T10:45:05;12.48;;;5.32;;
48765;SDS011;65794;51.836;5.002;2023-02-17T10:47:36;13.10;;;6.35;;
48765;SDS011;65794;51.836;5.002;2023-02-17T10:50:05;12.88;;;5.55;;
48765;SDS011;65794;51.836;5.002;2023-02-17T10:52:37;10.75;;;4.85;;
48765;SDS011;65794;51.836;5.002;2023-02-17T10:55:10;14.02;;;6.40;;
48765;SDS011;65794;51.836;5.002;2023-02-17T10:57:53;12.00;;;5.55;;
48765;SDS011;65794;51.836;5.002;2023-02-17T11:00:20;12.70;;;6.47;;
48765;SDS011;65794;51.836;5.002;2023-02-17T11:02:48;12.00;;;4.63;;
48765;SDS011;65794;51.836;5.002;2023-02-17T11:05:22;14.02;;;5.97;;
48765;SDS011;65794;51.836;5.002;2023-02-17T11:07:53;15.38;;;5.57;;
48765;SDS011;65794;51.836;5.002;2023-02-17T11:10:31;13.77;;;6.15;;
48765;SDS011;65794;51.836;5.002;2023-02-17T11:12:58;10.93;;;4.70;;
48765;SDS011;65794;51.836;5.002;2023-02-17T11:15:31;14.65;;;5.47;;
48765;SDS011;65794;51.836;5.002;2023-02-17T11:18:00;8.32;;;3.63;;
48765;SDS011;65794;51.836;5.002;2023-02-17T11:20:34;10.68;;;5.40;;
48765;SDS011;65794;51.836;5.002;2023-02-17T11:23:03;6.82;;;3.08;;
48765;SDS011;65794;51.836;5.002;2023-02-17T11:25:31;14.20;;;4.57;;
48765;SDS011;65794;51.836;5.002;2023-02-17T11:27:59;12.93;;;5.90;;
48765;SDS011;65794;51.836;5.002;2023-02-17T11:30:28;11.27;;;4.50;;
48765;SDS011;65794;51.836;5.002;2023-02-17T11:32:55;13.70;;;5.65;;
48765;SDS011;65794;51.836;5.002;2023-02-17T11:35:26;14.50;;;5.90;;
48765;SDS011;65794;51.836;5.002;2023-02-17T11:38:00;12.23;;;5.90;;
48765;SDS011;65794;51.836;5.002;2023-02-17T11:40:29;9.20;;;4.22;;
48765;SDS011;65794;51.836;5.002;2023-02-17T11:43:00;12.60;;;5.72;;
48765;SDS011;65794;51.836;5.002;2023-02-17T11:45:33;14.35;;;6.22;;
48765;SDS011;65794;51.836;5.002;2023-02-17T12:00:59;16.15;;;7.53;;
48765;SDS011;65794;51.836;5.002;2023-02-17T12:06:44;18.08;;;7.28;;
48765;SDS011;65794;51.836;5.002;2023-02-17T12:19:03;14.10;;;6.70;;
48765;SDS011;65794;51.836;5.002;2023-02-17T12:24:01;17.33;;;7.95;;
48765;SDS011;65794;51.836;5.002;2023-02-17T12:26:41;21.40;;;7.72;;
48765;SDS011;65794;51.836;5.002;2023-02-17T12:36:46;17.58;;;6.13;;
48765;SDS011;65794;51.836;5.002;2023-02-17T12:39:25;15.95;;;6.20;;
48765;SDS011;65794;51.836;5.002;2023-02-17T12:41:55;21.90;;;5.40;;
48765;SDS011;65794;51.836;5.002;2023-02-17T12:44:34;11.65;;;4.65;;
48765;SDS011;65794;51.836;5.002;2023-02-17T12:47:17;15.35;;;4.95;;
48765;SDS011;65794;51.836;5.002;2023-02-17T12:49:48;13.77;;;4.60;;
48765;SDS011;65794;51.836;5.002;2023-02-17T12:54:45;15.52;;;5.30;;
48765;SDS011;65794;51.836;5.002;2023-02-17T12:57:21;14.80;;;4.90;;
48765;SDS011;65794;51.836;5.002;2023-02-17T12:59:50;10.77;;;4.35;;
48765;SDS011;65794;51.836;5.002;2023-02-17T13:02:18;13.05;;;4.70;;
48765;SDS011;65794;51.836;5.002;2023-02-17T13:04:50;9.20;;;3.28;;
48765;SDS011;65794;51.836;5.002;2023-02-17T13:07:20;9.40;;;2.55;;
48765;SDS011;65794;51.836;5.002;2023-02-17T13:09:50;15.43;;;3.80;;
48765;SDS011;65794;51.836;5.002;2023-02-17T13:14:52;10.13;;;2.55;;
48765;SDS011;65794;51.836;5.002;2023-02-17T13:17:21;13.00;;;2.47;;
48765;SDS011;65794;51.836;5.002;2023-02-17T13:19:58;9.30;;;2.60;;
48765;SDS011;65794;51.836;5.002;2023-02-17T13:22:25;11.93;;;2.80;;
48765;SDS011;65794;51.836;5.002;2023-02-17T13:24:53;8.82;;;2.80;;
48765;SDS011;65794;51.836;5.002;2023-02-17T13:27:31;10.77;;;2.67;;
48765;SDS011;65794;51.836;5.002;2023-02-17T13:32:27;8.80;;;2.55;;
48765;SDS011;65794;51.836;5.002;2023-02-17T13:34:58;10.27;;;2.67;;
48765;SDS011;65794;51.836;5.002;2023-02-17T13:39:59;9.30;;;2.60;;
48765;SDS011;65794;51.836;5.002;2023-02-17T13:44:59;10.63;;;2.55;;
48765;SDS011;65794;51.836;5.002;2023-02-17T13:47:29;15.45;;;2.70;;
48765;SDS011;65794;51.836;5.002;2023-02-17T13:50:03;9.95;;;2.92;;
48765;SDS011;65794;51.836;5.002;2023-02-17T13:52:30;15.35;;;3.58;;
48765;SDS011;65794;51.836;5.002;2023-02-17T13:55:02;12.32;;;3.15;;
48765;SDS011;65794;51.836;5.002;2023-02-17T13:57:33;13.07;;;3.67;;
48765;SDS011;65794;51.836;5.002;2023-02-17T14:02:37;14.65;;;3.53;;
48765;SDS011;65794;51.836;5.002;2023-02-17T14:05:15;8.73;;;3.10;;
48765;SDS011;65794;51.836;5.002;2023-02-17T14:07:43;13.40;;;4.47;;
48765;SDS011;65794;51.836;5.002;2023-02-17T14:10:20;12.95;;;4.32;;
48765;SDS011;65794;51.836;5.002;2023-02-17T14:12:48;9.93;;;3.75;;
48765;SDS011;65794;51.836;5.002;2023-02-17T14:15:16;12.20;;;4.55;;
48765;SDS011;65794;51.836;5.002;2023-02-17T14:17:43;8.65;;;2.70;;
48765;SDS011;65794;51.836;5.002;2023-02-17T14:23:00;11.65;;;4.18;;
48765;SDS011;65794;51.836;5.002;2023-02-17T14:25:30;14.45;;;4.30;;
48765;SDS011;65794;51.836;5.002;2023-02-17T14:27:58;15.55;;;5.10;;
48765;SDS011;65794;51.836;5.002;2023-02-17T14:30:29;13.20;;;3.50;;
48765;SDS011;65794;51.836;5.002;2023-02-17T14:33:04;18.63;;;5.28;;
48765;SDS011;65794;51.836;5.002;2023-02-17T14:35:32;8.98;;;3.95;;
48765;SDS011;65794;51.836;5.002;2023-02-17T14:38:08;17.60;;;4.20;;
48765;SDS011;65794;51.836;5.002;2023-02-17T14:40:35;12.50;;;4.78;;
48765;SDS011;65794;51.836;5.002;2023-02-17T14:43:05;15.43;;;4.35;;
48765;SDS011;65794;51.836;5.002;2023-02-17T14:45:32;19.30;;;4.53;;
48765;SDS011;65794;51.836;5.002;2023-02-17T14:48:05;13.93;;;4.32;;
48765;SDS011;65794;51.836;5.002;2023-02-17T14:50:33;22.90;;;4.60;;
48765;SDS011;65794;51.836;5.002;2023-02-17T14:53:00;11.93;;;4.30;;
48765;SDS011;65794;51.836;5.002;2023-02-17T14:55:34;12.13;;;4.18;;
48765;SDS011;65794;51.836;5.002;2023-02-17T14:58:02;11.37;;;3.57;;
48765;SDS011;65794;51.836;5.002;2023-02-17T15:00:29;11.93;;;3.35;;
48765;SDS011;65794;51.836;5.002;2023-02-17T15:02:56;9.48;;;3.22;;
48765;SDS011;65794;51.836;5.002;2023-02-17T15:05:23;12.60;;;3.83;;
48765;SDS011;65794;51.836;5.002;2023-02-17T15:07:50;9.52;;;3.38;;
48765;SDS011;65794;51.836;5.002;2023-02-17T15:10:24;12.45;;;3.45;;
48765;SDS011;65794;51.836;5.002;2023-02-17T15:12:51;13.10;;;3.05;;
48765;SDS011;65794;51.836;5.002;2023-02-17T15:15:18;14.10;;;3.03;;
48765;SDS011;65794;51.836;5.002;2023-02-17T15:17:45;10.25;;;3.25;;
48765;SDS011;65794;51.836;5.002;2023-02-17T15:20:12;18.05;;;4.18;;
48765;SDS011;65794;51.836;5.002;2023-02-17T15:22:40;14.85;;;3.80;;
48765;SDS011;65794;51.836;5.002;2023-02-17T15:25:11;13.48;;;3.42;;
48765;SDS011;65794;51.836;5.002;2023-02-17T15:27:39;10.73;;;3.10;;
48765;SDS011;65794;51.836;5.002;2023-02-17T15:30:09;14.10;;;3.50;;
48765;SDS011;65794;51.836;5.002;2023-02-17T15:32:36;12.70;;;3.70;;
48765;SDS011;65794;51.836;5.002;2023-02-17T15:35:11;15.38;;;3.65;;
48765;SDS011;65794;51.836;5.002;2023-02-17T15:37:39;11.73;;;3.53;;
48765;SDS011;65794;51.836;5.002;2023-02-17T15:40:06;13.05;;;3.25;;
48765;SDS011;65794;51.836;5.002;2023-02-17T15:42:33;14.13;;;3.30;;
48765;SDS011;65794;51.836;5.002;2023-02-17T15:45:00;14.40;;;3.08;;
48765;SDS011;65794;51.836;5.002;2023-02-17T15:47:26;11.93;;;3.17;;
48765;SDS011;65794;51.836;5.002;2023-02-17T15:49:53;8.90;;;3.63;;
48765;SDS011;65794;51.836;5.002;2023-02-17T15:52:20;12.20;;;3.58;;
48765;SDS011;65794;51.836;5.002;2023-02-17T15:54:48;8.27;;;2.70;;
48765;SDS011;65794;51.836;5.002;2023-02-17T15:57:22;15.93;;;3.20;;
48765;SDS011;65794;51.836;5.002;2023-02-17T15:59:49;10.35;;;2.55;;
48765;SDS011;65794;51.836;5.002;2023-02-17T16:02:17;9.05;;;3.03;;
48765;SDS011;65794;51.836;5.002;2023-02-17T16:04:46;13.35;;;2.58;;